sensor_id;sensor_type;location;lat;lon;timestamp;P1;durP1;ratioP1;P2;durP2;ratioP2
21120;SDS011;12519;43.318;21.898;2023-03-19T00:03:02;10.0;;;10.0;;
21120;SDS011;12519;43.318;21.898;2023-03-19T00:07:38;10.0;;;10.0;;
21120;SDS011;12519;43.318;21.898;2023-03-19T00:12:15;17.0;;;14.0;;
21120;SDS011;12519;43.318;21.898;2023-03-19T00:16:52;17.0;;;14.0;;
21120;SDS011;12519;43.318;21.898;2023-03-19T00:21:28;24.0;;;17.0;;
21120;SDS011;12519;43.318;21.898;2023-03-19T00:26:06;24.0;;;17.0;;
21120;SDS011;12519;43.318;21.898;2023-03-19T00:30:42;19.0;;;15.0;;
21120;SDS011;12519;43.318;21.898;2023-03-19T00:35:19;19.0;;;15.0;;
21120;SDS011;12519;43.318;21.898;2023-03-19T00:39:55;14.0;;;13.0;;
21120;SDS011;12519;43.318;21.898;2023-03-19T00:44:31;14.0;;;13.0;;
21120;SDS011;12519;43.318;21.898;2023-03-19T00:49:08;14.0;;;13.0;;
21120;SDS011;12519;43.318;21.898;2023-03-19T00:53:44;14.0;;;12.0;;
21120;SDS011;12519;43.318;21.898;2023-03-19T00:58:21;14.0;;;12.0;;
21120;SDS011;12519;43.318;21.898;2023-03-19T01:02:57;13.0;;;12.0;;
21120;SDS011;12519;43.318;21.898;2023-03-19T01:07:34;13.0;;;12.0;;
21120;SDS011;12519;43.318;21.898;2023-03-19T01:17:02;14.0;;;12.0;;
21120;SDS011;12519;43.318;21.898;2023-03-19T01:21:39;16.0;;;13.0;;
21120;SDS011;12519;43.318;21.898;2023-03-19T01:26:20;16.0;;;13.0;;
21120;SDS011;12519;43.318;21.898;2023-03-19T01:30:57;14.0;;;11.0;;
21120;SDS011;12519;43.318;21.898;2023-03-19T01:35:41;14.0;;;11.0;;
21120;SDS011;12519;43.318;21.898;2023-03-19T01:40:20;12.0;;;9.0;;
21120;SDS011;12519;43.318;21.898;2023-03-19T01:44:57;12.0;;;9.0;;
21120;SDS011;12519;43.318;21.898;2023-03-19T01:49:34;11.0;;;9.0;;
21120;SDS011;12519;43.318;21.898;2023-03-19T01:54:12;11.0;;;9.0;;
21120;SDS011;12519;43.318;21.898;2023-03-19T01:59:00;11.0;;;9.0;;
21120;SDS011;12519;43.318;21.898;2023-03-19T02:03:53;10.0;;;9.0;;
21120;SDS011;12519;43.318;21.898;2023-03-19T02:08:33;10.0;;;9.0;;
21120;SDS011;12519;43.318;21.898;2023-03-19T02:13:16;13.0;;;12.0;;
21120;SDS011;12519;43.318;21.898;2023-03-19T02:17:53;13.0;;;12.0;;
21120;SDS011;12519;43.318;21.898;2023-03-19T02:22:30;16.0;;;15.0;;
21120;SDS011;12519;43.318;21.898;2023-03-19T02:27:23;16.0;;;15.0;;
21120;SDS011;12519;43.318;21.898;2023-03-19T02:32:00;16.0;;;16.0;;
21120;SDS011;12519;43.318;21.898;2023-03-19T02:36:37;16.0;;;16.0;;
21120;SDS011;12519;43.318;21.898;2023-03-19T02:41:30;17.0;;;16.0;;
21120;SDS011;12519;43.318;21.898;2023-03-19T02:46:11;17.0;;;16.0;;
21120;SDS011;12519;43.318;21.898;2023-03-19T02:50:48;16.0;;;15.0;;
21120;SDS011;12519;43.318;21.898;2023-03-19T02:55:24;16.0;;;15.0;;
21120;SDS011;12519;43.318;21.898;2023-03-19T03:00:00;15.0;;;14.0;;
21120;SDS011;12519;43.318;21.898;2023-03-19T03:04:36;15.0;;;14.0;;
21120;SDS011;12519;43.318;21.898;2023-03-19T03:09:12;15.0;;;14.0;;
21120;SDS011;12519;43.318;21.898;2023-03-19T03:13:49;18.0;;;15.0;;
21120;SDS011;12519;43.318;21.898;2023-03-19T03:18:25;18.0;;;15.0;;
21120;SDS011;12519;43.318;21.898;2023-03-19T03:23:02;20.0;;;16.0;;
21120;SDS011;12519;43.318;21.898;2023-03-19T03:27:38;20.0;;;16.0;;
21120;SDS011;12519;43.318;21.898;2023-03-19T03:32:15;20.0;;;16.0;;
21120;SDS011;12519;43.318;21.898;2023-03-19T03:36:51;20.0;;;16.0;;
21120;SDS011;12519;43.318;21.898;2023-03-19T03:41:27;21.0;;;17.0;;
21120;SDS011;12519;43.318;21.898;2023-03-19T03:46:04;21.0;;;17.0;;
21120;SDS011;12519;43.318;21.898;2023-03-19T03:50:41;24.0;;;18.0;;
21120;SDS011;12519;43.318;21.898;2023-03-19T03:55:19;24.0;;;18.0;;
21120;SDS011;12519;43.318;21.898;2023-03-19T03:59:55;26.0;;;18.0;;
21120;SDS011;12519;43.318;21.898;2023-03-19T04:04:33;26.0;;;18.0;;
21120;SDS011;12519;43.318;21.898;2023-03-19T04:09:09;26.0;;;18.0;;
21120;SDS011;12519;43.318;21.898;2023-03-19T04:13:45;21.0;;;16.0;;
21120;SDS011;12519;43.318;21.898;2023-03-19T04:18:22;21.0;;;16.0;;
21120;SDS011;12519;43.318;21.898;2023-03-19T04:22:58;16.0;;;13.0;;
21120;SDS011;12519;43.318;21.898;2023-03-19T04:27:34;16.0;;;13.0;;
21120;SDS011;12519;43.318;21.898;2023-03-19T04:32:11;20.0;;;14.0;;
21120;SDS011;12519;43.318;21.898;2023-03-19T04:36:48;20.0;;;14.0;;
21120;SDS011;12519;43.318;21.898;2023-03-19T04:41:24;23.0;;;16.0;;
21120;SDS011;12519;43.318;21.898;2023-03-19T04:45:59;23.0;;;16.0;;
21120;SDS011;12519;43.318;21.898;2023-03-19T04:50:35;23.0;;;18.0;;
21120;SDS011;12519;43.318;21.898;2023-03-19T04:55:12;23.0;;;18.0;;
21120;SDS011;12519;43.318;21.898;2023-03-19T04:59:49;23.0;;;20.0;;
21120;SDS011;12519;43.318;21.898;2023-03-19T05:04:25;23.0;;;20.0;;
21120;SDS011;12519;43.318;21.898;2023-03-19T05:09:01;23.0;;;20.0;;
21120;SDS011;12519;43.318;21.898;2023-03-19T05:13:41;22.0;;;20.0;;
21120;SDS011;12519;43.318;21.898;2023-03-19T05:18:18;22.0;;;20.0;;
21120;SDS011;12519;43.318;21.898;2023-03-19T05:22:55;20.0;;;19.0;;
21120;SDS011;12519;43.318;21.898;2023-03-19T05:27:32;20.0;;;19.0;;
21120;SDS011;12519;43.318;21.898;2023-03-19T05:32:10;18.0;;;17.0;;
21120;SDS011;12519;43.318;21.898;2023-03-19T05:36:48;18.0;;;17.0;;
21120;SDS011;12519;43.318;21.898;2023-03-19T05:41:25;17.0;;;15.0;;
21120;SDS011;12519;43.318;21.898;2023-03-19T05:46:02;17.0;;;15.0;;
21120;SDS011;12519;43.318;21.898;2023-03-19T05:50:39;20.0;;;18.0;;
21120;SDS011;12519;43.318;21.898;2023-03-19T05:55:15;20.0;;;18.0;;
21120;SDS011;12519;43.318;21.898;2023-03-19T05:59:52;24.0;;;22.0;;
21120;SDS011;12519;43.318;21.898;2023-03-19T06:04:28;24.0;;;22.0;;
21120;SDS011;12519;43.318;21.898;2023-03-19T06:09:04;24.0;;;22.0;;
21120;SDS011;12519;43.318;21.898;2023-03-19T06:13:41;22.0;;;20.0;;
21120;SDS011;12519;43.318;21.898;2023-03-19T06:18:17;22.0;;;20.0;;
21120;SDS011;12519;43.318;21.898;2023-03-19T06:22:53;19.0;;;18.0;;
21120;SDS011;12519;43.318;21.898;2023-03-19T06:27:30;19.0;;;18.0;;
21120;SDS011;12519;43.318;21.898;2023-03-19T06:32:06;20.0;;;17.0;;
21120;SDS011;12519;43.318;21.898;2023-03-19T06:36:44;20.0;;;17.0;;
21120;SDS011;12519;43.318;21.898;2023-03-19T06:41:20;21.0;;;16.0;;
21120;SDS011;12519;43.318;21.898;2023-03-19T06:45:56;21.0;;;16.0;;
21120;SDS011;12519;43.318;21.898;2023-03-19T06:50:32;16.0;;;13.0;;
21120;SDS011;12519;43.318;21.898;2023-03-19T06:55:09;16.0;;;13.0;;
21120;SDS011;12519;43.318;21.898;2023-03-19T06:59:45;16.0;;;13.0;;
21120;SDS011;12519;43.318;21.898;2023-03-19T07:04:21;11.0;;;10.0;;
21120;SDS011;12519;43.318;21.898;2023-03-19T07:08:57;11.0;;;10.0;;
21120;SDS011;12519;43.318;21.898;2023-03-19T07:13:33;16.0;;;14.0;;
21120;SDS011;12519;43.318;21.898;2023-03-19T07:18:09;16.0;;;14.0;;
21120;SDS011;12519;43.318;21.898;2023-03-19T07:22:45;21.0;;;19.0;;
21120;SDS011;12519;43.318;21.898;2023-03-19T07:27:21;21.0;;;19.0;;
21120;SDS011;12519;43.318;21.898;2023-03-19T07:31:57;26.0;;;23.0;;
21120;SDS011;12519;43.318;21.898;2023-03-19T07:36:34;26.0;;;23.0;;
21120;SDS011;12519;43.318;21.898;2023-03-19T07:41:10;30.0;;;27.0;;
21120;SDS011;12519;43.318;21.898;2023-03-19T07:45:46;30.0;;;27.0;;
21120;SDS011;12519;43.318;21.898;2023-03-19T07:50:23;34.0;;;28.0;;
21120;SDS011;12519;43.318;21.898;2023-03-19T07:54:59;34.0;;;28.0;;
21120;SDS011;12519;43.318;21.898;2023-03-19T07:59:36;34.0;;;28.0;;
21120;SDS011;12519;43.318;21.898;2023-03-19T08:04:12;37.0;;;28.0;;
21120;SDS011;12519;43.318;21.898;2023-03-19T08:08:49;37.0;;;28.0;;
21120;SDS011;12519;43.318;21.898;2023-03-19T08:13:25;30.0;;;24.0;;
21120;SDS011;12519;43.318;21.898;2023-03-19T08:18:03;30.0;;;24.0;;
21120;SDS011;12519;43.318;21.898;2023-03-19T08:22:40;23.0;;;21.0;;
21120;SDS011;12519;43.318;21.898;2023-03-19T08:27:17;23.0;;;21.0;;
21120;SDS011;12519;43.318;21.898;2023-03-19T08:31:53;25.0;;;20.0;;
21120;SDS011;12519;43.318;21.898;2023-03-19T08:36:31;25.0;;;20.0;;
21120;SDS011;12519;43.318;21.898;2023-03-19T08:41:07;27.0;;;20.0;;
21120;SDS011;12519;43.318;21.898;2023-03-19T08:45:45;27.0;;;20.0;;
21120;SDS011;12519;43.318;21.898;2023-03-19T08:50:21;26.0;;;20.0;;
21120;SDS011;12519;43.318;21.898;2023-03-19T08:54:57;26.0;;;20.0;;
21120;SDS011;12519;43.318;21.898;2023-03-19T08:59:34;26.0;;;20.0;;
21120;SDS011;12519;43.318;21.898;2023-03-19T09:04:11;26.0;;;19.0;;
21120;SDS011;12519;43.318;21.898;2023-03-19T09:08:48;26.0;;;19.0;;
21120;SDS011;12519;43.318;21.898;2023-03-19T09:13:24;24.0;;;18.0;;
21120;SDS011;12519;43.318;21.898;2023-03-19T09:18:02;24.0;;;18.0;;
21120;SDS011;12519;43.318;21.898;2023-03-19T09:22:38;21.0;;;16.0;;
21120;SDS011;12519;43.318;21.898;2023-03-19T09:27:15;21.0;;;16.0;;
21120;SDS011;12519;43.318;21.898;2023-03-19T09:31:51;21.0;;;17.0;;
21120;SDS011;12519;43.318;21.898;2023-03-19T09:36:28;21.0;;;17.0;;
21120;SDS011;12519;43.318;21.898;2023-03-19T09:41:08;21.0;;;18.0;;
21120;SDS011;12519;43.318;21.898;2023-03-19T09:46:16;21.0;;;18.0;;
21120;SDS011;12519;43.318;21.898;2023-03-19T09:51:18;18.0;;;16.0;;
21120;SDS011;12519;43.318;21.898;2023-03-19T09:56:20;18.0;;;16.0;;
21120;SDS011;12519;43.318;21.898;2023-03-19T10:01:00;16.0;;;15.0;;
21120;SDS011;12519;43.318;21.898;2023-03-19T10:05:41;16.0;;;15.0;;
21120;SDS011;12519;43.318;21.898;2023-03-19T10:11:02;17.0;;;16.0;;
21120;SDS011;12519;43.318;21.898;2023-03-19T10:16:23;17.0;;;16.0;;
21120;SDS011;12519;43.318;21.898;2023-03-19T10:21:06;18.0;;;16.0;;
21120;SDS011;12519;43.318;21.898;2023-03-19T10:26:08;18.0;;;16.0;;
21120;SDS011;12519;43.318;21.898;2023-03-19T10:30:54;18.0;;;16.0;;
21120;SDS011;12519;43.318;21.898;2023-03-19T10:36:01;18.0;;;16.0;;
21120;SDS011;12519;43.318;21.898;2023-03-19T10:40:49;17.0;;;15.0;;
21120;SDS011;12519;43.318;21.898;2023-03-19T10:45:57;17.0;;;15.0;;
21120;SDS011;12519;43.318;21.898;2023-03-19T10:50:35;13.0;;;12.0;;
21120;SDS011;12519;43.318;21.898;2023-03-19T10:55:34;13.0;;;12.0;;
21120;SDS011;12519;43.318;21.898;2023-03-19T11:00:14;13.0;;;12.0;;
21120;SDS011;12519;43.318;21.898;2023-03-19T11:05:05;9.0;;;9.0;;
21120;SDS011;12519;43.318;21.898;2023-03-19T11:10:05;9.0;;;9.0;;
21120;SDS011;12519;43.318;21.898;2023-03-19T11:14:55;10.0;;;10.0;;
21120;SDS011;12519;43.318;21.898;2023-03-19T11:19:33;10.0;;;10.0;;
21120;SDS011;12519;43.318;21.898;2023-03-19T11:24:16;12.0;;;10.0;;
21120;SDS011;12519;43.318;21.898;2023-03-19T11:28:52;12.0;;;10.0;;
21120;SDS011;12519;43.318;21.898;2023-03-19T11:33:43;11.0;;;10.0;;
21120;SDS011;12519;43.318;21.898;2023-03-19T11:39:09;11.0;;;10.0;;
21120;SDS011;12519;43.318;21.898;2023-03-19T11:44:13;10.0;;;9.0;;
21120;SDS011;12519;43.318;21.898;2023-03-19T11:49:20;10.0;;;9.0;;
21120;SDS011;12519;43.318;21.898;2023-03-19T11:54:52;8.0;;;7.0;;
21120;SDS011;12519;43.318;21.898;2023-03-19T12:00:06;8.0;;;7.0;;
21120;SDS011;12519;43.318;21.898;2023-03-19T12:05:15;6.0;;;5.0;;
21120;SDS011;12519;43.318;21.898;2023-03-19T12:10:15;6.0;;;5.0;;
21120;SDS011;12519;43.318;21.898;2023-03-19T12:15:30;12.0;;;10.0;;
21120;SDS011;12519;43.318;21.898;2023-03-19T12:20:41;12.0;;;10.0;;
21120;SDS011;12519;43.318;21.898;2023-03-19T12:25:57;18.0;;;14.0;;
21120;SDS011;12519;43.318;21.898;2023-03-19T12:30:41;18.0;;;14.0;;
21120;SDS011;12519;43.318;21.898;2023-03-19T12:36:20;20.0;;;14.0;;
21120;SDS011;12519;43.318;21.898;2023-03-19T12:41:10;21.0;;;15.0;;
21120;SDS011;12519;43.318;21.898;2023-03-19T12:45:56;21.0;;;15.0;;
21120;SDS011;12519;43.318;21.898;2023-03-19T12:50:44;21.0;;;15.0;;
21120;SDS011;12519;43.318;21.898;2023-03-19T12:55:32;14.0;;;12.0;;
21120;SDS011;12519;43.318;21.898;2023-03-19T13:00:20;14.0;;;12.0;;
21120;SDS011;12519;43.318;21.898;2023-03-19T13:05:16;8.0;;;8.0;;
21120;SDS011;12519;43.318;21.898;2023-03-19T13:10:17;8.0;;;8.0;;
21120;SDS011;12519;43.318;21.898;2023-03-19T13:15:00;10.0;;;10.0;;
21120;SDS011;12519;43.318;21.898;2023-03-19T13:20:08;10.0;;;10.0;;
21120;SDS011;12519;43.318;21.898;2023-03-19T13:25:48;12.0;;;11.0;;
21120;SDS011;12519;43.318;21.898;2023-03-19T13:30:36;12.0;;;11.0;;
21120;SDS011;12519;43.318;21.898;2023-03-19T13:35:22;10.0;;;9.0;;
21120;SDS011;12519;43.318;21.898;2023-03-19T13:40:51;10.0;;;9.0;;
21120;SDS011;12519;43.318;21.898;2023-03-19T13:45:35;8.0;;;7.0;;
21120;SDS011;12519;43.318;21.898;2023-03-19T13:50:22;8.0;;;7.0;;
21120;SDS011;12519;43.318;21.898;2023-03-19T13:55:50;10.0;;;8.0;;
21120;SDS011;12519;43.318;21.898;2023-03-19T14:01:05;10.0;;;8.0;;
21120;SDS011;12519;43.318;21.898;2023-03-19T14:06:42;12.0;;;8.0;;
21120;SDS011;12519;43.318;21.898;2023-03-19T14:11:28;10.0;;;8.0;;
21120;SDS011;12519;43.318;21.898;2023-03-19T14:16:14;10.0;;;8.0;;
21120;SDS011;12519;43.318;21.898;2023-03-19T14:21:08;8.0;;;8.0;;
21120;SDS011;12519;43.318;21.898;2023-03-19T14:26:10;8.0;;;8.0;;
21120;SDS011;12519;43.318;21.898;2023-03-19T14:30:57;8.0;;;8.0;;
21120;SDS011;12519;43.318;21.898;2023-03-19T14:35:38;8.0;;;8.0;;
21120;SDS011;12519;43.318;21.898;2023-03-19T14:40:25;8.0;;;8.0;;
21120;SDS011;12519;43.318;21.898;2023-03-19T14:45:20;9.0;;;8.0;;
21120;SDS011;12519;43.318;21.898;2023-03-19T14:50:24;9.0;;;8.0;;
21120;SDS011;12519;43.318;21.898;2023-03-19T14:55:36;8.0;;;8.0;;
21120;SDS011;12519;43.318;21.898;2023-03-19T15:00:13;8.0;;;8.0;;
21120;SDS011;12519;43.318;21.898;2023-03-19T15:04:55;8.0;;;7.0;;
21120;SDS011;12519;43.318;21.898;2023-03-19T15:09:33;8.0;;;7.0;;
21120;SDS011;12519;43.318;21.898;2023-03-19T15:14:13;9.0;;;8.0;;
21120;SDS011;12519;43.318;21.898;2023-03-19T15:19:42;9.0;;;8.0;;
21120;SDS011;12519;43.318;21.898;2023-03-19T15:24:20;10.0;;;8.0;;
21120;SDS011;12519;43.318;21.898;2023-03-19T15:28:57;10.0;;;8.0;;
21120;SDS011;12519;43.318;21.898;2023-03-19T15:33:34;8.0;;;7.0;;
21120;SDS011;12519;43.318;21.898;2023-03-19T15:38:16;8.0;;;7.0;;
21120;SDS011;12519;43.318;21.898;2023-03-19T15:42:56;7.0;;;6.0;;
21120;SDS011;12519;43.318;21.898;2023-03-19T15:47:38;7.0;;;6.0;;
21120;SDS011;12519;43.318;21.898;2023-03-19T15:52:31;12.0;;;10.0;;
21120;SDS011;12519;43.318;21.898;2023-03-19T15:57:21;12.0;;;10.0;;
21120;SDS011;12519;43.318;21.898;2023-03-19T16:02:00;17.0;;;14.0;;
21120;SDS011;12519;43.318;21.898;2023-03-19T16:07:13;17.0;;;14.0;;
21120;SDS011;12519;43.318;21.898;2023-03-19T16:12:27;14.0;;;12.0;;
21120;SDS011;12519;43.318;21.898;2023-03-19T16:17:16;14.0;;;12.0;;
21120;SDS011;12519;43.318;21.898;2023-03-19T16:21:52;12.0;;;9.0;;
21120;SDS011;12519;43.318;21.898;2023-03-19T16:26:34;12.0;;;9.0;;
21120;SDS011;12519;43.318;21.898;2023-03-19T16:31:23;27.0;;;22.0;;
21120;SDS011;12519;43.318;21.898;2023-03-19T16:36:15;27.0;;;22.0;;
21120;SDS011;12519;43.318;21.898;2023-03-19T16:41:12;27.0;;;22.0;;
21120;SDS011;12519;43.318;21.898;2023-03-19T16:46:05;42.0;;;34.0;;
21120;SDS011;12519;43.318;21.898;2023-03-19T16:50:48;42.0;;;34.0;;
21120;SDS011;12519;43.318;21.898;2023-03-19T16:55:26;76.0;;;63.0;;
21120;SDS011;12519;43.318;21.898;2023-03-19T17:00:11;76.0;;;63.0;;
21120;SDS011;12519;43.318;21.898;2023-03-19T17:04:50;110.0;;;92.0;;
21120;SDS011;12519;43.318;21.898;2023-03-19T17:09:26;110.0;;;92.0;;
21120;SDS011;12519;43.318;21.898;2023-03-19T17:14:03;106.0;;;90.0;;
21120;SDS011;12519;43.318;21.898;2023-03-19T17:18:55;106.0;;;90.0;;
21120;SDS011;12519;43.318;21.898;2023-03-19T17:23:31;101.0;;;89.0;;
21120;SDS011;12519;43.318;21.898;2023-03-19T17:28:08;101.0;;;89.0;;
21120;SDS011;12519;43.318;21.898;2023-03-19T17:32:44;104.0;;;90.0;;
21120;SDS011;12519;43.318;21.898;2023-03-19T17:37:23;104.0;;;90.0;;
21120;SDS011;12519;43.318;21.898;2023-03-19T17:42:05;106.0;;;90.0;;
21120;SDS011;12519;43.318;21.898;2023-03-19T17:46:56;106.0;;;90.0;;
21120;SDS011;12519;43.318;21.898;2023-03-19T17:51:32;79.0;;;66.0;;
21120;SDS011;12519;43.318;21.898;2023-03-19T17:56:09;79.0;;;66.0;;
21120;SDS011;12519;43.318;21.898;2023-03-19T18:00:56;79.0;;;66.0;;
21120;SDS011;12519;43.318;21.898;2023-03-19T18:05:32;52.0;;;41.0;;
21120;SDS011;12519;43.318;21.898;2023-03-19T18:10:13;52.0;;;41.0;;
21120;SDS011;12519;43.318;21.898;2023-03-19T18:14:57;58.0;;;46.0;;
21120;SDS011;12519;43.318;21.898;2023-03-19T18:19:34;58.0;;;46.0;;
21120;SDS011;12519;43.318;21.898;2023-03-19T18:24:13;65.0;;;50.0;;
21120;SDS011;12519;43.318;21.898;2023-03-19T18:28:49;65.0;;;50.0;;
21120;SDS011;12519;43.318;21.898;2023-03-19T18:33:26;56.0;;;46.0;;
21120;SDS011;12519;43.318;21.898;2023-03-19T18:38:11;56.0;;;46.0;;
21120;SDS011;12519;43.318;21.898;2023-03-19T18:42:56;46.0;;;41.0;;
21120;SDS011;12519;43.318;21.898;2023-03-19T18:47:33;46.0;;;41.0;;
21120;SDS011;12519;43.318;21.898;2023-03-19T18:52:11;51.0;;;46.0;;
21120;SDS011;12519;43.318;21.898;2023-03-19T18:56:49;51.0;;;46.0;;
21120;SDS011;12519;43.318;21.898;2023-03-19T19:01:26;51.0;;;46.0;;
21120;SDS011;12519;43.318;21.898;2023-03-19T19:06:04;56.0;;;50.0;;
21120;SDS011;12519;43.318;21.898;2023-03-19T19:10:43;56.0;;;50.0;;
21120;SDS011;12519;43.318;21.898;2023-03-19T19:15:37;55.0;;;49.0;;
21120;SDS011;12519;43.318;21.898;2023-03-19T19:20:15;55.0;;;49.0;;
21120;SDS011;12519;43.318;21.898;2023-03-19T19:25:00;54.0;;;48.0;;
21120;SDS011;12519;43.318;21.898;2023-03-19T19:29:38;54.0;;;48.0;;
21120;SDS011;12519;43.318;21.898;2023-03-19T19:34:15;60.0;;;50.0;;
21120;SDS011;12519;43.318;21.898;2023-03-19T19:38:52;60.0;;;50.0;;
21120;SDS011;12519;43.318;21.898;2023-03-19T19:43:30;66.0;;;53.0;;
21120;SDS011;12519;43.318;21.898;2023-03-19T19:48:09;66.0;;;53.0;;
21120;SDS011;12519;43.318;21.898;2023-03-19T19:52:57;72.0;;;60.0;;
21120;SDS011;12519;43.318;21.898;2023-03-19T19:57:34;72.0;;;60.0;;
21120;SDS011;12519;43.318;21.898;2023-03-19T20:02:17;79.0;;;68.0;;
21120;SDS011;12519;43.318;21.898;2023-03-19T20:07:02;79.0;;;68.0;;
21120;SDS011;12519;43.318;21.898;2023-03-19T20:11:38;79.0;;;68.0;;
21120;SDS011;12519;43.318;21.898;2023-03-19T20:16:15;74.0;;;61.0;;
21120;SDS011;12519;43.318;21.898;2023-03-19T20:20:55;74.0;;;61.0;;
21120;SDS011;12519;43.318;21.898;2023-03-19T20:25:33;68.0;;;54.0;;
21120;SDS011;12519;43.318;21.898;2023-03-19T20:30:25;68.0;;;54.0;;
21120;SDS011;12519;43.318;21.898;2023-03-19T20:35:14;66.0;;;55.0;;
21120;SDS011;12519;43.318;21.898;2023-03-19T20:40:02;66.0;;;55.0;;
21120;SDS011;12519;43.318;21.898;2023-03-19T20:44:43;64.0;;;56.0;;
21120;SDS011;12519;43.318;21.898;2023-03-19T20:49:23;64.0;;;56.0;;
21120;SDS011;12519;43.318;21.898;2023-03-19T20:53:59;62.0;;;52.0;;
21120;SDS011;12519;43.318;21.898;2023-03-19T20:58:36;62.0;;;52.0;;
21120;SDS011;12519;43.318;21.898;2023-03-19T21:03:15;61.0;;;48.0;;
21120;SDS011;12519;43.318;21.898;2023-03-19T21:08:01;61.0;;;48.0;;
21120;SDS011;12519;43.318;21.898;2023-03-19T21:12:51;58.0;;;46.0;;
21120;SDS011;12519;43.318;21.898;2023-03-19T21:17:28;58.0;;;46.0;;
21120;SDS011;12519;43.318;21.898;2023-03-19T21:22:04;54.0;;;43.0;;
21120;SDS011;12519;43.318;21.898;2023-03-19T21:26:41;54.0;;;43.0;;
21120;SDS011;12519;43.318;21.898;2023-03-19T21:31:20;54.0;;;43.0;;
21120;SDS011;12519;43.318;21.898;2023-03-19T21:35:57;51.0;;;44.0;;
21120;SDS011;12519;43.318;21.898;2023-03-19T21:40:44;51.0;;;44.0;;
21120;SDS011;12519;43.318;21.898;2023-03-19T21:45:25;48.0;;;45.0;;
21120;SDS011;12519;43.318;21.898;2023-03-19T21:50:13;48.0;;;45.0;;
21120;SDS011;12519;43.318;21.898;2023-03-19T21:54:54;59.0;;;50.0;;
21120;SDS011;12519;43.318;21.898;2023-03-19T21:59:30;59.0;;;50.0;;
21120;SDS011;12519;43.318;21.898;2023-03-19T22:04:07;70.0;;;56.0;;
21120;SDS011;12519;43.318;21.898;2023-03-19T22:08:44;70.0;;;56.0;;
21120;SDS011;12519;43.318;21.898;2023-03-19T22:13:22;78.0;;;58.0;;
21120;SDS011;12519;43.318;21.898;2023-03-19T22:18:11;78.0;;;58.0;;
21120;SDS011;12519;43.318;21.898;2023-03-19T22:22:50;86.0;;;60.0;;
21120;SDS011;12519;43.318;21.898;2023-03-19T22:27:28;86.0;;;60.0;;
21120;SDS011;12519;43.318;21.898;2023-03-19T22:32:05;80.0;;;61.0;;
21120;SDS011;12519;43.318;21.898;2023-03-19T22:36:53;80.0;;;61.0;;
21120;SDS011;12519;43.318;21.898;2023-03-19T22:41:30;80.0;;;61.0;;
21120;SDS011;12519;43.318;21.898;2023-03-19T22:46:15;73.0;;;62.0;;
21120;SDS011;12519;43.318;21.898;2023-03-19T22:50:55;73.0;;;62.0;;
21120;SDS011;12519;43.318;21.898;2023-03-19T22:55:31;72.0;;;60.0;;
21120;SDS011;12519;43.318;21.898;2023-03-19T23:00:10;72.0;;;60.0;;
21120;SDS011;12519;43.318;21.898;2023-03-19T23:04:54;70.0;;;58.0;;
21120;SDS011;12519;43.318;21.898;2023-03-19T23:09:31;70.0;;;58.0;;
21120;SDS011;12519;43.318;21.898;2023-03-19T23:14:10;65.0;;;54.0;;
21120;SDS011;12519;43.318;21.898;2023-03-19T23:18:47;65.0;;;54.0;;
21120;SDS011;12519;43.318;21.898;2023-03-19T23:23:27;60.0;;;50.0;;
21120;SDS011;12519;43.318;21.898;2023-03-19T23:28:08;60.0;;;50.0;;
21120;SDS011;12519;43.318;21.898;2023-03-19T23:33:09;56.0;;;46.0;;
21120;SDS011;12519;43.318;21.898;2023-03-19T23:37:50;56.0;;;46.0;;
21120;SDS011;12519;43.318;21.898;2023-03-19T23:42:30;52.0;;;42.0;;
21120;SDS011;12519;43.318;21.898;2023-03-19T23:47:07;52.0;;;42.0;;
21120;SDS011;12519;43.318;21.898;2023-03-19T23:51:46;52.0;;;42.0;;
21120;SDS011;12519;43.318;21.898;2023-03-19T23:56:24;51.0;;;44.0;;
